Time;durP1;ratioP1;P1;durP2;ratioP2;P2;SDS_P1;SDS_P2;PMS_P1;PMS_P2;Temp;Humidity;BMP_temperature;BMP_pressure;BME280_temperature;BME280_humidity;BME280_pressure;Samples;Min_cycle;Max_cycle;Signal;HPM_P1;HPM_P2
2023/05/06 00:01:24;;;;;;;4.90;4.40;;;22.80;79.70;;;;;;6234213;28;89391;-78
2023/05/06 00:04:26;;;;;;;5.25;4.75;;;22.80;79.70;;;;;;6230938;28;87942;-79
2023/05/06 00:07:29;;;;;;;4.75;4.25;;;22.90;79.80;;;;;;6231206;28;88950;-79
2023/05/06 00:10:31;;;;;;;6.38;5.18;;;22.80;79.60;;;;;;6222106;28;89409;-78
2023/05/06 00:13:33;;;;;;;5.18;4.68;;;22.80;79.70;;;;;;6229639;27;89044;-78
2023/05/06 00:16:35;;;;;;;5.05;4.55;;;22.80;79.60;;;;;;6229147;28;90258;-78
2023/05/06 00:19:37;;;;;;;5.53;5.00;;;22.80;79.60;;;;;;6240427;28;90648;-80
2023/05/06 00:22:40;;;;;;;5.10;4.60;;;22.90;79.80;;;;;;6222214;28;89153;-77
2023/05/06 00:25:42;;;;;;;5.13;4.63;;;22.80;79.60;;;;;;6225486;28;89046;-80
2023/05/06 00:28:44;;;;;;;5.88;5.28;;;22.80;79.60;;;;;;6223439;28;89009;-78
2023/05/06 00:31:46;;;;;;;5.30;4.80;;;22.80;79.70;;;;;;6231710;27;87935;-78
2023/05/06 00:34:48;;;;;;;5.50;4.80;;;22.80;79.80;;;;;;6229786;28;89042;-78
2023/05/06 00:37:57;;;;;;;5.47;4.97;;;22.80;79.80;;;;;;6218696;28;88345;-78
2023/05/06 00:40:59;;;;;;;5.82;5.22;;;22.80;79.60;;;;;;6227347;28;88322;-79
2023/05/06 00:44:01;;;;;;;5.38;4.88;;;22.90;79.80;;;;;;6218160;28;89008;-79
2023/05/06 00:47:04;;;;;;;5.63;5.05;;;22.80;79.70;;;;;;6209256;28;90121;-79
2023/05/06 00:50:07;;;;;;;5.95;5.03;;;22.80;79.70;;;;;;6217941;28;89093;-80
2023/05/06 00:53:11;;;;;;;4.90;4.40;;;22.80;79.70;;;;;;6228228;27;89033;-78
2023/05/06 00:56:13;;;;;;;5.53;5.03;;;22.80;79.70;;;;;;6223869;28;89144;-80
2023/05/06 00:59:16;;;;;;;5.45;4.95;;;22.80;79.60;;;;;;6226651;28;89128;-79
2023/05/06 01:02:18;;;;;;;5.70;5.05;;;22.80;79.60;;;;;;6218541;28;89166;-79
2023/05/06 01:05:22;;;;;;;5.40;4.90;;;22.80;79.70;;;;;;6224721;28;89116;-79
2023/05/06 01:08:32;;;;;;;5.28;4.78;;;22.80;79.70;;;;;;6231068;28;88301;-78
2023/05/06 01:11:41;;;;;;;4.82;4.43;;;22.80;79.70;;;;;;6225610;27;89276;-78
2023/05/06 01:14:52;;;;;;;5.53;4.95;;;22.80;79.70;;;;;;6211060;28;88853;-79
2023/05/06 01:17:57;;;;;;;5.30;4.80;;;22.80;79.60;;;;;;6231696;28;89973;-79
2023/05/06 01:21:01;;;;;;;5.25;4.75;;;22.80;79.70;;;;;;6241121;28;89087;-79
2023/05/06 01:24:04;;;;;;;5.35;4.85;;;22.80;79.60;;;;;;6226000;28;89344;-78
2023/05/06 01:27:07;;;;;;;5.25;4.75;;;22.80;79.60;;;;;;6222912;28;89183;-79
2023/05/06 01:30:10;;;;;;;5.20;4.70;;;22.80;79.70;;;;;;6226075;27;89073;-77
2023/05/06 01:33:19;;;;;;;5.00;4.60;;;22.80;79.60;;;;;;6229847;28;89030;-79
2023/05/06 01:36:29;;;;;;;5.15;4.65;;;22.80;79.80;;;;;;6221444;28;89141;-80
2023/05/06 01:39:33;;;;;;;5.25;4.75;;;22.80;79.60;;;;;;6227550;28;88314;-79
2023/05/06 01:42:37;;;;;;;5.78;5.03;;;22.80;79.70;;;;;;6252263;28;88946;-80
2023/05/06 01:45:41;;;;;;;5.63;5.00;;;22.80;79.60;;;;;;6246333;28;88764;-80
2023/05/06 01:48:45;;;;;;;4.80;4.38;;;22.80;79.70;;;;;;6208879;28;89954;-80
2023/05/06 01:51:50;;;;;;;5.20;4.70;;;22.80;79.80;;;;;;6213236;28;89037;-78
2023/05/06 01:54:53;;;;;;;5.38;4.88;;;22.80;79.70;;;;;;6215085;28;89088;-79
2023/05/06 01:57:56;;;;;;;5.60;5.10;;;22.80;79.70;;;;;;6233933;28;89343;-79
2023/05/06 02:00:58;;;;;;;5.22;4.70;;;22.80;79.70;;;;;;6235689;27;88929;-78
2023/05/06 02:04:00;;;;;;;5.10;4.60;;;22.80;79.70;;;;;;6219092;28;88964;-81
2023/05/06 02:07:02;;;;;;;5.70;5.10;;;22.80;79.70;;;;;;6220563;28;89953;-80
2023/05/06 02:10:07;;;;;;;5.22;4.72;;;22.80;79.80;;;;;;6230712;28;88338;-80
2023/05/06 02:13:09;;;;;;;5.80;4.97;;;22.80;79.80;;;;;;6234349;28;89008;-80
2023/05/06 02:16:11;;;;;;;4.75;4.35;;;22.80;79.80;;;;;;6231506;28;89377;-80
2023/05/06 02:19:13;;;;;;;4.80;4.32;;;22.80;79.80;;;;;;6235929;27;89997;-80
2023/05/06 02:22:15;;;;;;;4.65;4.25;;;22.80;79.70;;;;;;6226796;27;89128;-81
2023/05/06 02:25:19;;;;;;;5.10;4.60;;;22.80;79.60;;;;;;6225894;27;89672;-80
2023/05/06 02:28:21;;;;;;;4.93;4.43;;;22.80;80.60;;;;;;6226412;28;87944;-80
2023/05/06 02:31:23;;;;;;;5.20;4.70;;;22.80;79.70;;;;;;6219464;28;89066;-79
2023/05/06 02:34:25;;;;;;;5.13;4.63;;;22.80;79.70;;;;;;6224113;28;89404;-80
2023/05/06 02:37:27;;;;;;;5.07;4.57;;;22.80;79.80;;;;;;6227392;28;89071;-80
2023/05/06 02:40:30;;;;;;;5.00;4.57;;;22.80;79.70;;;;;;6243128;28;88272;-79
2023/05/06 02:43:32;;;;;;;5.22;4.72;;;22.80;79.70;;;;;;6231907;28;89075;-79
2023/05/06 02:46:35;;;;;;;4.78;4.38;;;22.70;79.60;;;;;;6232101;28;87961;-80
2023/05/06 02:49:37;;;;;;;5.05;4.43;;;22.80;79.80;;;;;;6223226;28;90037;-80
2023/05/06 02:52:39;;;;;;;4.68;4.28;;;22.80;79.70;;;;;;6212043;28;89074;-80
2023/05/06 02:55:42;;;;;;;5.28;4.78;;;22.80;79.70;;;;;;6209908;28;89154;-80
2023/05/06 02:58:44;;;;;;;5.65;5.15;;;22.70;79.60;;;;;;6225883;28;89006;-79
2023/05/06 03:01:46;;;;;;;5.88;5.28;;;22.70;80.50;;;;;;6235399;28;89070;-80
2023/05/06 03:04:48;;;;;;;5.75;5.25;;;22.70;79.60;;;;;;6214708;28;89450;-80
2023/05/06 03:07:50;;;;;;;6.30;5.70;;;22.70;79.60;;;;;;6226221;28;87993;-81
2023/05/06 03:10:54;;;;;;;6.05;5.45;;;22.80;79.70;;;;;;6242675;27;88442;-80
2023/05/06 03:13:56;;;;;;;6.28;5.65;;;22.80;79.60;;;;;;6231991;28;89005;-78
2023/05/06 03:16:57;;;;;;;5.97;5.38;;;22.80;79.60;;;;;;6236472;27;87920;-80
2023/05/06 03:19:59;;;;;;;6.60;5.82;;;22.80;79.60;;;;;;6227487;28;89987;-81
2023/05/06 03:23:01;;;;;;;5.63;5.10;;;22.70;79.70;;;;;;6220436;28;87901;-80
2023/05/06 03:26:05;;;;;;;5.70;5.20;;;22.70;79.70;;;;;;6217394;28;89272;-79
2023/05/06 03:29:07;;;;;;;6.45;5.85;;;22.80;79.70;;;;;;6209497;28;89053;-79
2023/05/06 03:32:09;;;;;;;6.05;5.45;;;22.70;79.60;;;;;;6205782;28;89588;-79
2023/05/06 03:35:11;;;;;;;5.97;5.47;;;22.70;79.60;;;;;;6232013;28;89179;-80
2023/05/06 03:38:13;;;;;;;6.13;5.53;;;22.70;79.60;;;;;;6228544;27;88719;-79
2023/05/06 03:41:16;;;;;;;6.53;5.90;;;22.70;79.60;;;;;;6228791;28;88370;-79
2023/05/06 03:44:18;;;;;;;6.45;5.85;;;22.70;79.60;;;;;;6223293;28;89170;-79
2023/05/06 03:47:20;;;;;;;6.43;5.55;;;22.70;79.60;;;;;;6240013;28;89115;-79
2023/05/06 03:50:22;;;;;;;6.90;6.20;;;22.70;79.60;;;;;;6229672;28;90182;-79
2023/05/06 03:53:25;;;;;;;6.50;5.82;;;22.80;79.60;;;;;;6221380;28;89347;-79
2023/05/06 03:56:28;;;;;;;6.57;5.97;;;22.70;79.60;;;;;;6237413;28;87973;-79
2023/05/06 03:59:30;;;;;;;6.38;5.78;;;22.70;79.60;;;;;;6211946;28;89048;-78
2023/05/06 04:02:34;;;;;;;6.57;5.97;;;22.70;79.60;;;;;;6234668;28;89057;-79
2023/05/06 04:05:36;;;;;;;6.70;6.10;;;22.70;79.60;;;;;;6216670;28;89113;-79
2023/05/06 04:08:38;;;;;;;6.75;6.15;;;22.70;79.60;;;;;;6228821;28;90361;-79
2023/05/06 04:11:41;;;;;;;6.90;6.20;;;22.70;79.60;;;;;;6215140;27;88395;-80
2023/05/06 04:14:43;;;;;;;6.60;6.00;;;22.70;79.60;;;;;;6229084;28;89105;-79
2023/05/06 04:17:45;;;;;;;6.97;6.28;;;22.70;79.60;;;;;;6229664;28;89087;-79
2023/05/06 04:20:47;;;;;;;7.28;6.57;;;22.70;79.60;;;;;;6229096;28;89984;-80
2023/05/06 04:23:49;;;;;;;7.28;6.57;;;22.70;79.60;;;;;;6212771;28;89023;-79
2023/05/06 04:26:53;;;;;;;7.28;6.57;;;22.70;79.60;;;;;;6240216;27;89559;-80
2023/05/06 04:29:55;;;;;;;7.32;6.63;;;22.70;79.60;;;;;;6224704;27;89073;-80
2023/05/06 04:32:57;;;;;;;7.88;7.03;;;22.70;79.60;;;;;;6220370;28;89063;-80
2023/05/06 04:35:59;;;;;;;7.30;6.60;;;22.70;79.60;;;;;;6218967;28;88363;-81
2023/05/06 04:39:02;;;;;;;7.07;6.38;;;22.70;79.60;;;;;;6229920;28;89128;-80
2023/05/06 04:42:05;;;;;;;7.28;6.57;;;22.70;79.60;;;;;;6224390;28;88253;-80
2023/05/06 04:45:10;;;;;;;7.38;6.68;;;22.70;79.60;;;;;;6229993;28;89407;-80
2023/05/06 04:48:12;;;;;;;7.47;6.78;;;22.70;79.60;;;;;;6238709;27;89048;-80
2023/05/06 04:51:14;;;;;;;7.50;6.80;;;22.70;79.60;;;;;;6231169;27;89922;-81
2023/05/06 04:54:16;;;;;;;7.68;6.97;;;22.70;79.60;;;;;;6229020;28;89184;-81
2023/05/06 04:57:19;;;;;;;6.95;6.35;;;22.70;79.60;;;;;;6228400;27;89140;-81
2023/05/06 05:00:21;;;;;;;7.60;6.82;;;22.70;79.60;;;;;;6223993;28;89314;-80
2023/05/06 05:03:24;;;;;;;7.55;6.85;;;22.70;79.60;;;;;;6222118;28;89468;-81
2023/05/06 05:06:25;;;;;;;8.15;7.35;;;22.70;79.50;;;;;;6219024;28;89102;-80
2023/05/06 05:09:27;;;;;;;7.35;6.65;;;22.70;79.60;;;;;;6211410;28;88259;-81
2023/05/06 05:12:31;;;;;;;7.45;6.75;;;22.70;79.60;;;;;;6241013;28;88494;-80
2023/05/06 05:15:33;;;;;;;7.80;7.00;;;22.70;79.60;;;;;;6228466;27;89145;-80
2023/05/06 05:18:35;;;;;;;7.70;6.90;;;22.70;79.60;;;;;;6228216;28;89069;-80
2023/05/06 05:21:37;;;;;;;7.90;7.00;;;22.70;79.60;;;;;;6230685;28;89971;-80
2023/05/06 05:24:39;;;;;;;7.45;6.75;;;22.70;80.50;;;;;;6231723;28;89064;-78
2023/05/06 05:27:42;;;;;;;7.43;6.72;;;22.70;79.50;;;;;;6218768;28;89052;-80
2023/05/06 05:30:44;;;;;;;7.28;6.57;;;22.70;79.60;;;;;;6235585;28;89229;-79
2023/05/06 05:33:46;;;;;;;7.28;6.57;;;22.70;79.60;;;;;;6226314;27;88036;-80
2023/05/06 05:36:48;;;;;;;7.18;6.47;;;22.70;79.60;;;;;;6220878;28;89078;-79
2023/05/06 05:39:50;;;;;;;7.78;6.97;;;22.70;79.60;;;;;;6222688;28;89010;-79
2023/05/06 05:42:54;;;;;;;7.65;6.95;;;22.70;79.60;;;;;;6216188;28;88320;-79
2023/05/06 05:45:56;;;;;;;7.38;6.68;;;22.70;79.60;;;;;;6217605;28;88285;-79
2023/05/06 05:48:58;;;;;;;7.13;6.43;;;22.70;79.60;;;;;;6239055;28;89090;-79
2023/05/06 05:52:00;;;;;;;7.30;6.60;;;22.70;79.60;;;;;;6234485;28;89929;-76
2023/05/06 05:55:02;;;;;;;7.72;6.93;;;22.70;79.70;;;;;;6235327;28;89284;-79
2023/05/06 05:58:05;;;;;;;7.25;6.55;;;22.70;79.60;;;;;;6245565;27;89027;-79
2023/05/06 06:01:07;;;;;;;7.43;6.72;;;22.70;79.60;;;;;;6221617;28;90722;-80
2023/05/06 06:04:09;;;;;;;7.40;6.70;;;22.70;79.60;;;;;;6224247;28;89101;-80
2023/05/06 06:07:11;;;;;;;7.78;7.07;;;22.70;79.60;;;;;;6224377;28;89125;-79
2023/05/06 06:10:14;;;;;;;7.18;6.47;;;22.70;79.60;;;;;;6242512;28;89145;-80
2023/05/06 06:13:17;;;;;;;7.25;6.55;;;22.70;79.70;;;;;;6221409;28;88394;-79
2023/05/06 06:16:19;;;;;;;7.40;6.70;;;22.70;79.60;;;;;;6233448;28;89378;-80
2023/05/06 06:19:21;;;;;;;7.53;6.82;;;22.70;79.70;;;;;;6231977;28;88910;-80
2023/05/06 06:22:23;;;;;;;7.53;6.82;;;22.70;79.70;;;;;;6234609;28;89921;-81
2023/05/06 06:25:25;;;;;;;7.40;6.70;;;22.70;79.70;;;;;;6228330;28;88761;-80
2023/05/06 06:28:29;;;;;;;7.93;7.13;;;22.70;79.80;;;;;;6214557;28;89390;-80
2023/05/06 06:31:32;;;;;;;7.57;6.82;;;22.70;79.90;;;;;;6220755;28;88006;-79
2023/05/06 06:34:35;;;;;;;7.95;7.15;;;22.70;79.80;;;;;;6229710;28;88965;-79
2023/05/06 06:37:37;;;;;;;7.10;6.40;;;22.70;79.80;;;;;;6232835;28;89139;-79
2023/05/06 06:40:39;;;;;;;7.10;6.40;;;22.70;79.80;;;;;;6235281;28;90134;-80
2023/05/06 06:43:42;;;;;;;7.40;6.70;;;22.70;79.80;;;;;;6228021;28;88214;-80
2023/05/06 06:46:44;;;;;;;6.88;6.22;;;22.70;79.80;;;;;;6231273;28;87844;-79
2023/05/06 06:49:46;;;;;;;7.88;6.97;;;22.70;79.90;;;;;;6217990;28;89093;-79
2023/05/06 06:52:48;;;;;;;7.18;6.47;;;22.80;79.90;;;;;;6224137;28;90118;-79
2023/05/06 06:55:50;;;;;;;6.93;6.30;;;22.80;79.90;;;;;;6231882;28;89748;-79
2023/05/06 06:58:53;;;;;;;7.10;6.40;;;22.80;79.80;;;;;;6229010;28;89072;-79
2023/05/06 07:01:55;;;;;;;6.63;6.03;;;22.70;79.80;;;;;;6220969;27;89074;-79
2023/05/06 07:04:57;;;;;;;7.30;6.60;;;22.70;79.80;;;;;;6233063;28;88998;-80
2023/05/06 07:07:59;;;;;;;7.35;6.63;;;22.80;79.80;;;;;;6228423;28;89074;-79
2023/05/06 07:11:01;;;;;;;7.40;6.70;;;22.70;79.80;;;;;;6231702;28;89084;-79
2023/05/06 07:14:05;;;;;;;7.70;6.90;;;22.80;79.90;;;;;;6253847;28;88406;-78
2023/05/06 07:17:07;;;;;;;7.25;6.40;;;22.80;79.90;;;;;;6224392;28;89124;-79
2023/05/06 07:20:11;;;;;;;7.45;6.75;;;22.70;80.00;;;;;;6236038;28;89067;-80
2023/05/06 07:23:13;;;;;;;7.00;6.30;;;22.80;80.00;;;;;;6226333;28;90378;-80
2023/05/06 07:26:15;;;;;;;8.23;7.18;;;22.80;80.10;;;;;;6230704;28;89388;-80
2023/05/06 07:29:18;;;;;;;7.10;6.30;;;22.80;80.10;;;;;;6244385;27;88981;-78
2023/05/06 07:32:20;;;;;;;7.00;6.30;;;22.80;80.10;;;;;;6232597;28;89023;-80
2023/05/06 07:35:22;;;;;;;7.30;6.60;;;22.80;80.00;;;;;;6220374;28;89325;-81
2023/05/06 07:38:24;;;;;;;7.25;6.40;;;22.80;80.10;;;;;;6225684;28;89368;-80
2023/05/06 07:41:26;;;;;;;7.50;6.70;;;22.80;80.10;;;;;;6233625;28;88089;-80
2023/05/06 07:44:30;;;;;;;7.40;6.60;;;22.80;80.20;;;;;;6221768;27;89582;-80
2023/05/06 07:47:33;;;;;;;6.95;6.22;;;22.80;80.30;;;;;;6232691;28;89115;-79
2023/05/06 07:50:35;;;;;;;7.32;6.63;;;22.80;80.30;;;;;;6209267;28;89056;-80
2023/05/06 07:53:38;;;;;;;6.75;6.10;;;22.80;80.30;;;;;;6205701;28;89952;-80
2023/05/06 07:56:41;;;;;;;6.30;5.70;;;22.80;80.30;;;;;;6214724;28;90857;-81
2023/05/06 07:59:47;;;;;;;6.57;5.97;;;22.80;80.50;;;;;;6216192;28;90417;-80
2023/05/06 08:02:49;;;;;;;6.93;6.15;;;22.80;80.50;;;;;;6229688;28;87774;-81
2023/05/06 08:05:51;;;;;;;7.00;6.18;;;22.80;80.50;;;;;;6220482;28;89064;-80
2023/05/06 08:08:53;;;;;;;6.53;5.82;;;22.80;80.50;;;;;;6207359;28;89016;-81
2023/05/06 08:11:55;;;;;;;6.57;5.90;;;22.80;80.50;;;;;;6243584;28;89358;-81
2023/05/06 08:14:58;;;;;;;7.10;6.40;;;22.80;80.50;;;;;;6210874;28;88308;-81
2023/05/06 08:18:00;;;;;;;7.18;5.88;;;22.80;80.50;;;;;;6234798;28;89088;-81
2023/05/06 08:21:02;;;;;;;6.93;6.22;;;22.80;80.50;;;;;;6235046;27;89066;-81
2023/05/06 08:24:04;;;;;;;6.88;6.22;;;22.80;80.60;;;;;;6217476;28;90046;-80
2023/05/06 08:27:06;;;;;;;6.90;5.75;;;22.80;80.70;;;;;;6206319;28;89190;-81
2023/05/06 08:30:11;;;;;;;6.68;6.07;;;22.80;80.70;;;;;;6211617;28;90045;-81
2023/05/06 08:33:13;;;;;;;6.40;5.80;;;22.80;80.70;;;;;;6220978;28;89058;-81
2023/05/06 08:36:15;;;;;;;6.80;6.10;;;22.80;80.70;;;;;;6237186;27;89088;-81
2023/05/06 08:39:17;;;;;;;6.72;5.82;;;22.80;80.80;;;;;;6231644;28;89498;-81
2023/05/06 08:42:19;;;;;;;6.15;5.55;;;22.80;80.80;;;;;;6234719;28;89087;-80
2023/05/06 08:45:22;;;;;;;6.90;6.20;;;22.80;80.80;;;;;;6245258;28;87533;-81
2023/05/06 08:48:25;;;;;;;6.90;6.20;;;22.80;80.80;;;;;;6231777;28;89864;-81
2023/05/06 08:51:30;;;;;;;6.35;5.75;;;22.80;80.80;;;;;;6230480;27;88007;-81
2023/05/06 08:54:34;;;;;;;6.18;5.57;;;22.80;80.80;;;;;;6236978;27;90016;-81
2023/05/06 08:57:37;;;;;;;6.32;5.57;;;22.80;80.70;;;;;;6215986;28;89015;-81
2023/05/06 09:00:42;;;;;;;6.43;5.70;;;22.90;80.80;;;;;;6224980;28;89223;-82
2023/05/06 09:03:44;;;;;;;6.72;6.03;;;22.80;80.80;;;;;;6229287;27;89025;-82
2023/05/06 09:06:46;;;;;;;5.95;5.35;;;22.80;80.80;;;;;;6227194;27;89075;-80
2023/05/06 09:09:48;;;;;;;7.03;5.78;;;22.80;80.80;;;;;;6229020;28;89040;-82
2023/05/06 09:12:53;;;;;;;5.95;5.35;;;22.80;80.80;;;;;;6219575;28;89073;-80
2023/05/06 09:15:56;;;;;;;5.95;5.45;;;22.80;80.80;;;;;;6221147;28;88575;-80
2023/05/06 09:18:59;;;;;;;6.10;5.53;;;22.80;80.90;;;;;;6224268;28;89388;-82
2023/05/06 09:22:01;;;;;;;5.70;5.18;;;22.80;80.70;;;;;;6234103;28;89430;-82
2023/05/06 09:25:03;;;;;;;5.95;5.35;;;22.80;80.80;;;;;;6228873;28;88834;-81
2023/05/06 09:28:06;;;;;;;6.60;5.88;;;22.80;80.80;;;;;;6229508;28;89191;-81
2023/05/06 09:31:09;;;;;;;5.93;5.25;;;22.80;80.90;;;;;;6210514;28;89185;-81
2023/05/06 09:34:13;;;;;;;5.63;5.13;;;22.80;80.80;;;;;;6222525;28;89673;-81
2023/05/06 09:37:15;;;;;;;6.10;5.50;;;22.80;80.80;;;;;;6219793;28;89093;-82
2023/05/06 09:40:17;;;;;;;5.70;5.18;;;22.80;80.90;;;;;;6225536;28;89089;-81
2023/05/06 09:43:19;;;;;;;5.82;5.20;;;22.80;81.00;;;;;;6227326;28;89329;-80
2023/05/06 09:46:24;;;;;;;5.88;5.30;;;22.80;80.90;;;;;;6221297;28;87573;-81
2023/05/06 09:49:26;;;;;;;5.07;4.57;;;22.80;81.00;;;;;;6233079;28;89369;-82
2023/05/06 09:52:29;;;;;;;7.13;5.97;;;22.80;80.90;;;;;;6232137;28;89296;-82
2023/05/06 09:55:32;;;;;;;6.68;5.35;;;22.80;80.90;;;;;;6220861;28;90344;-82
2023/05/06 09:58:35;;;;;;;5.75;5.22;;;22.80;80.90;;;;;;6210265;28;88804;-81
2023/05/06 10:01:40;;;;;;;6.00;5.10;;;22.80;80.90;;;;;;6221260;28;87707;-81
2023/05/06 10:04:44;;;;;;;5.60;5.07;;;22.80;80.90;;;;;;6209144;28;89145;-80
2023/05/06 10:07:49;;;;;;;7.10;5.55;;;22.80;81.00;;;;;;6222329;28;89204;-79
2023/05/06 10:10:52;;;;;;;5.68;5.07;;;22.80;81.00;;;;;;6209326;28;89063;-79
2023/05/06 10:13:54;;;;;;;5.10;4.60;;;22.80;80.90;;;;;;6209225;28;89403;-81
2023/05/06 10:16:59;;;;;;;4.65;4.22;;;22.80;80.90;;;;;;6237796;28;88344;-80
2023/05/06 10:20:04;;;;;;;5.90;5.00;;;22.80;81.00;;;;;;6234537;27;89083;-82
2023/05/06 10:23:13;;;;;;;5.25;4.75;;;22.80;80.90;;;;;;6233071;28;89103;-81
2023/05/06 10:26:18;;;;;;;4.90;4.47;;;22.80;81.00;;;;;;6209983;28;90365;-81
2023/05/06 10:29:21;;;;;;;5.15;4.65;;;22.80;81.00;;;;;;6218762;28;89027;-78
2023/05/06 10:32:27;;;;;;;5.43;4.70;;;22.80;81.00;;;;;;6220362;28;89231;-80
2023/05/06 10:35:42;;;;;;;5.45;4.70;;;22.90;81.00;;;;;;6224208;28;89009;-80
2023/05/06 10:38:48;;;;;;;5.15;4.57;;;22.80;80.90;;;;;;6223187;28;87783;-80
2023/05/06 10:41:50;;;;;;;5.45;4.93;;;22.80;80.90;;;;;;6208278;27;89034;-80
2023/05/06 10:44:59;;;;;;;4.60;4.15;;;22.80;81.00;;;;;;6229921;28;89560;-81
2023/05/06 10:48:09;;;;;;;5.28;4.72;;;22.80;80.90;;;;;;6239522;28;88372;-81
2023/05/06 10:51:26;;;;;;;5.72;4.78;;;22.80;80.90;;;;;;6217088;28;89091;-82
2023/05/06 10:54:27;;;;;;;5.28;4.75;;;22.80;80.90;;;;;;6241620;27;89169;-80
2023/05/06 10:57:40;;;;;;;4.88;4.40;;;22.80;80.80;;;;;;6224401;28;90408;-81
2023/05/06 11:00:52;;;;;;;4.60;4.20;;;22.80;80.90;;;;;;6211331;28;89243;-80
2023/05/06 11:03:56;;;;;;;4.50;4.10;;;22.80;80.90;;;;;;6218117;28;87997;-82
2023/05/06 11:07:08;;;;;;;4.85;4.35;;;22.80;80.80;;;;;;6242261;27;88964;-80
2023/05/06 11:10:11;;;;;;;4.82;4.07;;;22.80;80.80;;;;;;6225594;27;89069;-81
2023/05/06 11:13:24;;;;;;;4.65;4.25;;;22.90;80.90;;;;;;6235186;28;89421;-79
2023/05/06 11:16:48;;;;;;;5.50;4.50;;;22.90;80.90;;;;;;6226099;27;89246;-82
2023/05/06 11:20:18;;;;;;;4.53;4.10;;;22.90;80.90;;;;;;6219738;28;87161;-82
2023/05/06 11:23:20;;;;;;;5.50;4.60;;;22.90;81.00;;;;;;6220916;28;89130;-80
2023/05/06 11:26:24;;;;;;;4.63;4.22;;;22.90;81.00;;;;;;6220250;28;87964;-80
2023/05/06 11:29:26;;;;;;;4.07;3.67;;;22.90;81.00;;;;;;6219763;28;90056;-83
2023/05/06 11:32:29;;;;;;;4.50;4.10;;;22.80;80.90;;;;;;6219879;28;89394;-80
2023/05/06 11:35:36;;;;;;;4.85;4.35;;;22.90;81.00;;;;;;6208725;28;89050;-80
2023/05/06 11:38:42;;;;;;;4.53;4.13;;;22.80;80.90;;;;;;6227237;28;87912;-79
2023/05/06 11:41:44;;;;;;;4.32;3.90;;;22.90;81.00;;;;;;6218183;28;89054;-79
2023/05/06 11:44:46;;;;;;;4.20;3.80;;;22.80;80.90;;;;;;6230616;28;89115;-81
2023/05/06 11:47:48;;;;;;;4.25;3.85;;;22.90;81.00;;;;;;6220891;28;88043;-79
2023/05/06 11:50:51;;;;;;;4.45;4.05;;;22.90;81.00;;;;;;6217692;28;88301;-80
2023/05/06 11:54:04;;;;;;;3.88;3.50;;;22.90;80.90;;;;;;6218186;28;89100;-79
2023/05/06 11:57:06;;;;;;;4.10;3.70;;;22.90;81.00;;;;;;6216230;28;87984;-77
2023/05/06 12:00:09;;;;;;;4.45;4.05;;;22.90;81.00;;;;;;6225503;28;90355;-78
2023/05/06 12:03:14;;;;;;;4.18;3.78;;;22.90;81.00;;;;;;6243183;27;89235;-79
2023/05/06 12:06:18;;;;;;;4.32;3.92;;;22.90;81.00;;;;;;6229564;28;89194;-79
2023/05/06 12:09:22;;;;;;;4.00;3.60;;;22.90;81.00;;;;;;6229959;28;89168;-80
2023/05/06 12:12:24;;;;;;;4.22;3.67;;;22.90;81.00;;;;;;6207260;28;89026;-80
2023/05/06 12:15:27;;;;;;;4.07;3.67;;;22.90;81.00;;;;;;6228959;28;89003;-79
2023/05/06 12:18:29;;;;;;;4.28;3.88;;;22.90;81.00;;;;;;6231492;28;87956;-81
2023/05/06 12:21:37;;;;;;;3.90;3.50;;;22.90;81.00;;;;;;6223499;28;88358;-80
2023/05/06 12:24:39;;;;;;;4.13;3.72;;;22.90;81.00;;;;;;6232529;28;89394;-78
2023/05/06 12:27:40;;;;;;;3.95;3.63;;;22.90;81.10;;;;;;6255161;27;89064;-79
2023/05/06 12:30:43;;;;;;;4.25;3.85;;;22.90;81.10;;;;;;6208719;27;89893;-78
2023/05/06 12:33:47;;;;;;;3.97;3.60;;;22.90;81.10;;;;;;6239933;28;89040;-80
2023/05/06 12:36:50;;;;;;;3.70;3.40;;;22.90;81.10;;;;;;6232255;27;89241;-78
2023/05/06 12:39:53;;;;;;;4.15;3.75;;;22.90;81.10;;;;;;6223559;28;89096;-78
2023/05/06 12:42:55;;;;;;;4.40;3.30;;;22.90;81.10;;;;;;6210333;28;87878;-79
2023/05/06 12:46:04;;;;;;;5.15;3.90;;;22.90;81.10;;;;;;6207898;28;89066;-78
2023/05/06 12:49:06;;;;;;;4.30;3.70;;;22.90;81.10;;;;;;6222770;28;88905;-77
2023/05/06 12:52:10;;;;;;;3.90;3.50;;;22.90;81.10;;;;;;6230787;27;88383;-79
2023/05/06 12:55:12;;;;;;;3.75;3.20;;;22.90;81.20;;;;;;6206704;27;88974;-79
2023/05/06 12:58:18;;;;;;;4.18;3.38;;;22.90;81.10;;;;;;6209258;28;89108;-80
2023/05/06 13:01:20;;;;;;;4.40;3.80;;;22.90;81.10;;;;;;6208387;27;88965;-78
2023/05/06 13:04:22;;;;;;;3.70;3.35;;;22.90;81.30;;;;;;6211691;28;89160;-78
2023/05/06 13:07:26;;;;;;;4.00;3.60;;;22.90;81.30;;;;;;6217573;28;89022;-77
2023/05/06 13:10:28;;;;;;;3.45;3.15;;;22.90;81.20;;;;;;6229183;28;89022;-79
2023/05/06 13:13:29;;;;;;;4.13;3.42;;;22.90;81.10;;;;;;6212325;27;89063;-80
2023/05/06 13:16:32;;;;;;;4.82;3.65;;;22.90;81.10;;;;;;6209786;28;89013;-78
2023/05/06 13:19:34;;;;;;;3.63;3.25;;;23.00;81.30;;;;;;6227935;28;87898;-79
2023/05/06 13:22:38;;;;;;;3.45;3.15;;;22.90;81.20;;;;;;6205818;28;88213;-77
2023/05/06 13:25:40;;;;;;;3.58;3.28;;;22.90;81.10;;;;;;6212708;28;89002;-79
2023/05/06 13:28:42;;;;;;;3.97;3.10;;;22.90;81.20;;;;;;6229247;28;89038;-77
2023/05/06 13:31:43;;;;;;;3.45;3.10;;;22.90;81.10;;;;;;6228394;28;90041;-79
2023/05/06 13:34:45;;;;;;;3.45;3.10;;;22.90;81.10;;;;;;6216129;28;89263;-78
2023/05/06 13:37:49;;;;;;;3.33;3.03;;;23.00;81.30;;;;;;6227519;28;89082;-78
2023/05/06 13:40:52;;;;;;;3.92;3.28;;;22.90;81.20;;;;;;6230072;28;89134;-78
2023/05/06 13:43:54;;;;;;;2.90;2.70;;;22.90;81.30;;;;;;6221222;28;89041;-80
2023/05/06 13:46:56;;;;;;;3.30;3.00;;;22.90;81.20;;;;;;6215762;28;89101;-79
2023/05/06 13:49:58;;;;;;;3.40;3.10;;;22.90;81.30;;;;;;6215577;28;89375;-78
2023/05/06 13:53:01;;;;;;;3.40;3.10;;;22.90;81.30;;;;;;6223012;28;88356;-79
2023/05/06 13:56:03;;;;;;;3.75;3.28;;;22.90;81.30;;;;;;6216768;28;88280;-78
2023/05/06 13:59:06;;;;;;;3.22;2.92;;;22.90;81.30;;;;;;6220273;28;88980;-79
2023/05/06 14:02:08;;;;;;;3.40;3.10;;;23.00;81.30;;;;;;6218125;28;90068;-79
2023/05/06 14:05:10;;;;;;;3.10;2.80;;;22.90;81.30;;;;;;6239535;27;88989;-81
2023/05/06 14:08:14;;;;;;;3.03;2.83;;;22.90;81.20;;;;;;6213486;28;88886;-80
2023/05/06 14:11:16;;;;;;;3.00;2.70;;;22.90;81.30;;;;;;6211924;28;89062;-80
2023/05/06 14:14:17;;;;;;;3.50;3.20;;;23.00;81.30;;;;;;6218090;28;89155;-80
2023/05/06 14:17:19;;;;;;;3.40;2.80;;;22.90;81.30;;;;;;6228830;28;89060;-80
2023/05/06 14:20:21;;;;;;;3.25;2.90;;;23.00;81.30;;;;;;6226270;28;89088;-81
2023/05/06 14:23:25;;;;;;;3.85;3.30;;;22.90;81.30;;;;;;6209711;28;88334;-79
2023/05/06 14:26:27;;;;;;;3.30;2.90;;;23.00;81.30;;;;;;6221959;28;89013;-81
2023/05/06 14:29:29;;;;;;;3.45;2.63;;;22.90;81.30;;;;;;6222001;28;89045;-79
2023/05/06 14:32:31;;;;;;;2.85;2.65;;;22.90;81.20;;;;;;6232121;28;90619;-79
2023/05/06 14:35:33;;;;;;;3.10;2.80;;;23.00;81.30;;;;;;6224169;28;89269;-81
2023/05/06 14:38:36;;;;;;;3.53;2.88;;;22.90;81.20;;;;;;6229723;28;89074;-80
2023/05/06 14:41:38;;;;;;;2.80;2.60;;;22.90;81.20;;;;;;6222161;28;87980;-81
2023/05/06 14:44:41;;;;;;;2.92;2.70;;;23.00;81.30;;;;;;6217682;28;88242;-80
2023/05/06 14:47:43;;;;;;;3.10;2.80;;;23.00;81.30;;;;;;6233605;28;88133;-80
2023/05/06 14:50:45;;;;;;;3.00;2.70;;;22.90;81.20;;;;;;6232212;27;89022;-80
2023/05/06 14:53:49;;;;;;;2.80;2.60;;;23.00;81.30;;;;;;6211625;27;88453;-79
2023/05/06 14:56:51;;;;;;;2.50;2.30;;;23.00;81.30;;;;;;6234525;28;87953;-80
2023/05/06 14:59:54;;;;;;;2.63;2.42;;;23.00;81.30;;;;;;6210448;28;89079;-80
2023/05/06 15:02:56;;;;;;;3.85;3.13;;;23.00;81.30;;;;;;6229918;28;90044;-80
2023/05/06 15:05:57;;;;;;;3.67;2.78;;;23.00;81.20;;;;;;6233115;28;89115;-80
2023/05/06 15:09:02;;;;;;;2.78;2.58;;;23.00;81.20;;;;;;6245851;27;89008;-80
2023/05/06 15:12:05;;;;;;;2.53;2.33;;;23.00;81.20;;;;;;6233429;28;88636;-78
2023/05/06 15:15:08;;;;;;;2.65;2.45;;;23.00;81.20;;;;;;6231219;28;89066;-80
2023/05/06 15:18:12;;;;;;;3.05;2.67;;;23.00;81.30;;;;;;6229809;28;89378;-80
2023/05/06 15:21:14;;;;;;;3.00;2.70;;;23.00;81.20;;;;;;6231701;28;89402;-80
2023/05/06 15:24:17;;;;;;;2.58;2.38;;;23.00;81.20;;;;;;6219314;28;88485;-77
2023/05/06 15:27:19;;;;;;;2.58;2.38;;;23.00;81.30;;;;;;6209145;28;89719;-79
2023/05/06 15:30:22;;;;;;;2.55;2.30;;;23.00;81.20;;;;;;6207604;28;87961;-78
2023/05/06 15:33:23;;;;;;;2.88;2.67;;;23.00;81.20;;;;;;6210918;28;90225;-79
2023/05/06 15:36:26;;;;;;;2.50;2.30;;;22.90;81.10;;;;;;6247574;28;89033;-79
2023/05/06 15:39:34;;;;;;;2.50;2.30;;;23.00;81.20;;;;;;6234753;28;89090;-79
2023/05/06 15:42:37;;;;;;;2.58;2.38;;;23.00;81.20;;;;;;6249737;27;89094;-79
2023/05/06 15:45:39;;;;;;;2.42;2.22;;;23.00;81.20;;;;;;6228001;28;89093;-78
2023/05/06 15:48:41;;;;;;;2.30;2.10;;;23.00;81.20;;;;;;6208946;28;89063;-79
2023/05/06 15:51:43;;;;;;;2.65;2.30;;;23.00;81.20;;;;;;6241620;27;89338;-78
2023/05/06 15:54:47;;;;;;;2.53;2.33;;;22.90;81.20;;;;;;6230952;28;88690;-78